Pagina principale
METAR-TAF:

METAR-TAF

Aeroporti :

Aeroporto Internazionale di Norwich

Norwich, Inghilterra

latitudine: 52-38N, longitudine: 001-18E, altezza: 14 m

Osservazione

Il bollettino è stato emesso 30 minuti fa, alle 17:20 UTC
Vento 15 kt da est/nord-est, variando fra nord/nord-est e est/sud-est
Temperature 19°C
Umidità 40%
Pressione 1024 hPa
Visibilità 10 km o più

METAR: EGSH 311720Z AUTO 07015KT 030V120 9999 NCD 19/05 Q1024

Ora: 18:50 (17:50 UTC)

Previsione

Il bollettino è stato emesso 3 ore e 51 minuti fa, alle 13:59 UTC
Previsione valida dal 31 alle 15 UTC al 31 alle 24 UTC
Vento 9 kt da est
Visibilità 10 km o più
nessuna nube inferiore a 1500 m e nessun cumulonembo

TAF: EGSH 311359Z 3115/3124 09009KT CAVOK

Osservazioni e previsioni meteorologiche di più di 4000 aeroporti (messaggi METAR e TAF).

Le stazioni disponibili sono rappresentate dai dischi gialli e rossi sulla carta.

Puntare il mouse per vedere il nome della stazione.

Clicca sopra per visualizzare le osservazioni e previsioni meteorologiche.

Per cambiare la mappa : fare clic sui pulsanti verdi con una croce nera per ingrandire, il pulsante verde con un trattino per diminuire, o sulla freccia verde per le mappe adiacenti.


METAR-TAF: